createdAt,value
2023-08-01T00:01:05.745Z,17.08
2023-08-01T00:03:33.205Z,17.07
2023-08-01T00:06:00.041Z,17.04
2023-08-01T00:08:26.829Z,17.03
2023-08-01T00:10:53.624Z,17.03
2023-08-01T00:13:20.369Z,17.02
2023-08-01T00:15:57.568Z,16.99
2023-08-01T00:18:31.910Z,16.97
2023-08-01T00:21:00.266Z,16.98
2023-08-01T00:23:27.102Z,16.99
2023-08-01T00:25:53.901Z,17.00
2023-08-01T00:28:20.876Z,17.00
2023-08-01T00:30:47.623Z,17.01
2023-08-01T00:33:16.181Z,17.00
2023-08-01T00:35:43.172Z,17.01
2023-08-01T00:38:09.916Z,17.00
2023-08-01T00:40:36.660Z,16.98
2023-08-01T00:43:03.348Z,16.97
2023-08-01T00:45:32.001Z,16.94
2023-08-01T00:47:58.772Z,16.93
2023-08-01T00:50:25.888Z,16.92
2023-08-01T00:52:53.821Z,16.91
2023-08-01T00:55:22.304Z,16.90
2023-08-01T00:57:49.361Z,16.90
2023-08-01T01:00:16.248Z,16.89
2023-08-01T01:02:43.014Z,16.87
2023-08-01T01:05:09.910Z,16.84
2023-08-01T01:07:37.803Z,16.82
2023-08-01T01:10:04.797Z,16.80
2023-08-01T01:12:31.632Z,16.77
2023-08-01T01:14:58.366Z,16.75
2023-08-01T01:17:25.086Z,16.73
2023-08-01T01:19:52.012Z,16.69
2023-08-01T01:22:20.930Z,16.70
2023-08-01T01:24:49.183Z,16.70
2023-08-01T01:27:18.356Z,16.67
2023-08-01T01:29:45.951Z,16.66
2023-08-01T01:32:14.635Z,16.63
2023-08-01T01:34:41.370Z,16.61
2023-08-01T01:37:08.099Z,16.63
2023-08-01T01:39:35.927Z,16.63
2023-08-01T01:42:02.624Z,16.63
2023-08-01T01:44:29.429Z,16.61
2023-08-01T01:46:56.169Z,16.60
2023-08-01T01:49:23.364Z,16.61
2023-08-01T01:51:50.118Z,16.62
2023-08-01T01:54:16.985Z,16.57
2023-08-01T01:56:43.715Z,16.53
2023-08-01T01:59:10.473Z,16.50
2023-08-01T02:01:37.218Z,16.46
2023-08-01T02:04:03.951Z,16.41
2023-08-01T02:06:31.925Z,16.36
2023-08-01T02:08:58.673Z,16.32
2023-08-01T02:11:25.471Z,16.26
2023-08-01T02:13:56.964Z,16.23
2023-08-01T02:16:23.846Z,16.16
2023-08-01T02:18:58.902Z,16.14
2023-08-01T02:21:25.616Z,16.07
2023-08-01T02:23:52.883Z,16.01
2023-08-01T02:26:19.680Z,15.98
2023-08-01T02:28:46.405Z,15.96
2023-08-01T02:31:13.531Z,15.95
2023-08-01T02:33:40.590Z,15.93
2023-08-01T02:36:07.442Z,15.91
2023-08-01T02:38:34.242Z,15.91
2023-08-01T02:41:00.958Z,15.93
2023-08-01T02:43:28.015Z,15.91
2023-08-01T02:45:55.328Z,15.87
2023-08-01T02:48:22.066Z,15.86
2023-08-01T02:50:49.782Z,15.83
2023-08-01T02:53:16.590Z,15.79
2023-08-01T02:55:47.413Z,15.79
2023-08-01T02:58:14.140Z,15.80
2023-08-01T03:00:41.643Z,15.81
2023-08-01T03:03:08.708Z,15.81
2023-08-01T03:05:38.817Z,15.82
2023-08-01T03:08:06.199Z,15.83
2023-08-01T03:10:36.775Z,15.83
2023-08-01T03:13:04.163Z,15.84
2023-08-01T03:15:31.388Z,15.86
2023-08-01T03:17:58.274Z,15.90
2023-08-01T03:20:25.303Z,15.95
2023-08-01T03:22:52.347Z,16.00
2023-08-01T03:25:19.176Z,16.03
2023-08-01T03:27:45.893Z,16.07
2023-08-01T03:30:12.812Z,16.09
2023-08-01T03:32:41.275Z,16.13
2023-08-01T03:35:09.862Z,16.17
2023-08-01T03:37:36.586Z,16.24
2023-08-01T03:40:03.626Z,16.31
2023-08-01T03:42:30.723Z,16.39
2023-08-01T03:44:58.074Z,16.49
2023-08-01T03:47:24.830Z,16.58
2023-08-01T03:49:51.685Z,16.68
2023-08-01T03:52:18.663Z,16.76
2023-08-01T03:54:45.483Z,16.82
2023-08-01T03:57:13.082Z,16.86
2023-08-01T03:59:39.833Z,16.91
2023-08-01T04:02:06.626Z,17.00
2023-08-01T04:04:33.344Z,17.09
2023-08-01T04:07:00.068Z,17.14
2023-08-01T04:09:26.850Z,17.16
2023-08-01T04:11:55.059Z,17.19
2023-08-01T04:14:21.824Z,17.22
2023-08-01T04:16:49.783Z,17.26
2023-08-01T04:19:18.950Z,17.32
2023-08-01T04:21:45.743Z,17.43
2023-08-01T04:24:12.491Z,17.54
2023-08-01T04:26:39.729Z,17.61
2023-08-01T04:29:06.686Z,17.70
2023-08-01T04:31:33.522Z,17.83
2023-08-01T04:34:00.422Z,17.94
2023-08-01T04:36:27.444Z,18.07
2023-08-01T04:38:54.150Z,18.24
2023-08-01T04:41:20.872Z,18.43
2023-08-01T04:43:47.628Z,18.63
2023-08-01T04:46:15.471Z,18.83
2023-08-01T04:48:42.412Z,18.97
2023-08-01T04:51:09.146Z,19.13
2023-08-01T04:53:35.882Z,19.27
2023-08-01T04:56:02.588Z,19.39
2023-08-01T04:58:29.416Z,19.39
2023-08-01T05:00:56.192Z,19.37
2023-08-01T05:03:24.306Z,19.35
2023-08-01T05:05:54.112Z,19.32
2023-08-01T05:08:25.438Z,19.27
2023-08-01T05:10:52.333Z,19.19
2023-08-01T05:13:20.829Z,19.15
2023-08-01T05:15:51.032Z,19.06
2023-08-01T05:18:18.904Z,18.96
2023-08-01T05:20:49.703Z,18.87
2023-08-01T05:23:16.562Z,18.79
2023-08-01T05:25:45.614Z,18.71
2023-08-01T05:28:13.259Z,18.74
2023-08-01T05:30:41.460Z,18.74
2023-08-01T05:33:08.200Z,18.76
2023-08-01T05:35:35.168Z,18.73
2023-08-01T05:38:01.944Z,18.68
2023-08-01T05:40:29.744Z,18.70
2023-08-01T05:42:56.519Z,18.76
2023-08-01T05:45:23.249Z,18.81
2023-08-01T05:47:50.172Z,18.91
2023-08-01T05:50:16.923Z,19.05
2023-08-01T05:52:43.633Z,19.27
2023-08-01T05:55:10.867Z,19.45
2023-08-01T05:57:38.660Z,19.57
2023-08-01T06:00:05.979Z,19.67
2023-08-01T06:02:32.796Z,19.78
2023-08-01T06:04:59.690Z,19.85
2023-08-01T06:07:26.636Z,19.92
2023-08-01T06:09:53.424Z,19.95
2023-08-01T06:12:20.768Z,19.93
2023-08-01T06:14:47.742Z,19.84
2023-08-01T06:17:14.517Z,19.75
2023-08-01T06:19:42.079Z,19.62
2023-08-01T06:22:09.948Z,19.56
2023-08-01T06:24:36.690Z,19.52
2023-08-01T06:27:05.385Z,19.41
2023-08-01T06:29:32.337Z,19.35
2023-08-01T06:31:59.121Z,19.32
2023-08-01T06:34:26.250Z,19.28
2023-08-01T06:36:53.479Z,19.33
2023-08-01T06:39:20.204Z,19.43
2023-08-01T06:41:47.145Z,19.49
2023-08-01T06:44:13.938Z,19.61
2023-08-01T06:46:41.256Z,19.72
2023-08-01T06:49:08.102Z,19.93
2023-08-01T06:51:34.884Z,20.15
2023-08-01T06:54:01.932Z,20.36
2023-08-01T06:56:28.731Z,20.60
2023-08-01T06:58:55.565Z,20.67
2023-08-01T07:01:23.811Z,20.81
2023-08-01T07:03:54.062Z,20.86
2023-08-01T07:06:21.150Z,20.87
2023-08-01T07:08:48.251Z,20.91
2023-08-01T07:11:15.008Z,20.99
2023-08-01T07:13:41.763Z,21.15
2023-08-01T07:16:08.509Z,21.43
2023-08-01T07:18:35.272Z,22.30
2023-08-01T07:21:05.768Z,23.60
2023-08-01T07:23:35.024Z,24.49
2023-08-01T07:26:01.638Z,25.44
2023-08-01T07:28:28.738Z,25.83
2023-08-01T07:31:02.370Z,25.97
2023-08-01T07:33:29.765Z,26.10
2023-08-01T07:35:56.774Z,26.08
2023-08-01T07:38:24.222Z,25.88
2023-08-01T07:40:52.787Z,25.69
2023-08-01T07:43:20.292Z,25.64
2023-08-01T07:45:49.149Z,25.44
2023-08-01T07:48:18.145Z,25.15
2023-08-01T07:50:44.897Z,24.89
2023-08-01T07:53:12.774Z,24.58
2023-08-01T07:55:40.094Z,24.36
2023-08-01T07:58:06.904Z,24.13
2023-08-01T08:00:36.233Z,23.94
2023-08-01T08:03:03.200Z,23.82
2023-08-01T08:05:30.074Z,23.72
2023-08-01T08:07:56.853Z,23.57
2023-08-01T08:10:23.874Z,23.42
2023-08-01T08:12:50.688Z,23.31
2023-08-01T08:15:18.385Z,23.16
2023-08-01T08:17:45.306Z,23.15
2023-08-01T08:20:12.105Z,23.31
2023-08-01T08:22:38.908Z,23.56
2023-08-01T08:25:05.812Z,23.75
2023-08-01T08:27:32.791Z,23.97
2023-08-01T08:29:59.562Z,24.11
2023-08-01T08:32:26.896Z,24.14
2023-08-01T08:34:53.699Z,24.18
2023-08-01T08:37:20.485Z,24.14
2023-08-01T08:39:48.128Z,24.14
2023-08-01T08:42:15.140Z,24.12
2023-08-01T08:44:45.305Z,24.05
2023-08-01T08:47:13.992Z,23.93
2023-08-01T08:49:42.927Z,23.87
2023-08-01T08:52:12.041Z,23.79
2023-08-01T08:54:40.177Z,23.72
2023-08-01T08:57:08.056Z,23.67
2023-08-01T08:59:35.398Z,23.62
2023-08-01T09:02:04.907Z,23.58
2023-08-01T09:04:33.101Z,23.50
2023-08-01T09:07:07.510Z,23.44
2023-08-01T09:09:35.595Z,23.45
2023-08-01T09:12:02.365Z,23.47
2023-08-01T09:14:29.221Z,23.51
2023-08-01T09:16:58.122Z,23.51
2023-08-01T09:19:29.479Z,23.47
2023-08-01T09:21:57.221Z,23.31
2023-08-01T09:24:23.921Z,23.17
2023-08-01T09:26:50.831Z,23.05
2023-08-01T09:29:18.661Z,22.98
2023-08-01T09:31:45.663Z,22.93
2023-08-01T09:34:25.286Z,22.82
2023-08-01T09:36:58.367Z,22.71
2023-08-01T09:39:25.426Z,22.58
2023-08-01T09:41:59.326Z,22.48
2023-08-01T09:44:30.423Z,22.37
2023-08-01T09:47:02.822Z,22.34
2023-08-01T09:49:37.913Z,22.37
2023-08-01T09:52:05.089Z,22.41
2023-08-01T09:54:32.039Z,22.45
2023-08-01T09:56:59.362Z,22.47
2023-08-01T09:59:27.510Z,22.50
2023-08-01T10:01:55.644Z,22.49
2023-08-01T10:04:26.076Z,22.45
2023-08-01T10:06:58.265Z,22.43
2023-08-01T10:09:26.020Z,22.34
2023-08-01T10:11:53.250Z,22.35
2023-08-01T10:14:21.988Z,22.36
2023-08-01T10:16:49.295Z,22.34
2023-08-01T10:19:17.075Z,22.33
2023-08-01T10:21:45.096Z,22.28
2023-08-01T10:24:13.624Z,22.28
2023-08-01T10:26:41.070Z,22.27
2023-08-01T10:29:07.960Z,22.21
2023-08-01T10:31:34.842Z,22.20
2023-08-01T10:34:07.212Z,22.14
2023-08-01T10:36:34.604Z,22.11
2023-08-01T10:39:03.142Z,22.06
2023-08-01T10:41:32.640Z,21.99
2023-08-01T10:44:27.059Z,21.85
2023-08-01T10:46:53.807Z,21.79
2023-08-01T10:49:23.511Z,21.75
2023-08-01T10:51:50.918Z,21.70
2023-08-01T10:54:25.215Z,21.64
2023-08-01T10:56:54.763Z,21.56
2023-08-01T10:59:22.767Z,21.44
2023-08-01T11:01:51.864Z,21.28
2023-08-01T11:04:20.134Z,21.12
2023-08-01T11:06:48.547Z,20.83
2023-08-01T11:09:23.897Z,20.58
2023-08-01T11:12:08.827Z,20.39
2023-08-01T11:14:35.664Z,20.30
2023-08-01T11:17:04.123Z,20.21
2023-08-01T11:19:31.568Z,20.09
2023-08-01T11:21:58.903Z,19.96
2023-08-01T11:24:27.542Z,19.84
2023-08-01T11:26:56.088Z,19.76
2023-08-01T11:29:23.393Z,19.72
2023-08-01T11:31:58.647Z,19.66
2023-08-01T11:34:25.914Z,19.60
2023-08-01T11:36:53.571Z,19.47
2023-08-01T11:39:23.695Z,19.34
2023-08-01T11:41:50.733Z,19.26
2023-08-01T11:44:17.525Z,19.20
2023-08-01T11:46:45.923Z,19.04
2023-08-01T11:49:15.441Z,18.97
2023-08-01T11:51:43.564Z,18.89
2023-08-01T11:54:12.872Z,18.81
2023-08-01T11:56:41.024Z,18.74
2023-08-01T11:59:11.525Z,18.76
2023-08-01T12:01:47.010Z,18.79
2023-08-01T12:04:24.969Z,18.85
2023-08-01T12:06:51.895Z,18.89
2023-08-01T12:09:22.113Z,18.94
2023-08-01T12:11:59.991Z,18.98
2023-08-01T12:14:26.786Z,18.94
2023-08-01T12:16:53.521Z,18.89
2023-08-01T12:19:22.267Z,18.81
2023-08-01T12:21:50.114Z,18.76
2023-08-01T12:24:17.183Z,18.76
2023-08-01T12:26:44.437Z,18.75
2023-08-01T12:29:11.902Z,18.81
2023-08-01T12:31:38.897Z,18.93
2023-08-01T12:34:06.052Z,18.99
2023-08-01T12:36:33.037Z,19.04
2023-08-01T12:39:01.057Z,18.97
2023-08-01T12:41:27.824Z,18.85
2023-08-01T12:43:54.904Z,18.74
2023-08-01T12:46:21.684Z,18.67
2023-08-01T12:48:48.517Z,18.65
2023-08-01T12:51:16.050Z,18.60
2023-08-01T12:53:43.083Z,18.58
2023-08-01T12:56:09.844Z,18.59
2023-08-01T12:58:36.818Z,18.65
2023-08-01T13:01:07.996Z,18.65
2023-08-01T13:03:34.819Z,18.61
2023-08-01T13:06:01.798Z,18.64
2023-08-01T13:08:30.603Z,18.65
2023-08-01T13:11:00.850Z,18.60
2023-08-01T13:13:28.089Z,18.58
2023-08-01T13:15:56.950Z,18.56
2023-08-01T13:18:23.709Z,18.56
2023-08-01T13:20:50.430Z,18.58
2023-08-01T13:23:17.676Z,18.57
2023-08-01T13:25:47.723Z,18.62
2023-08-01T13:28:14.518Z,18.70
2023-08-01T13:30:41.688Z,18.66
2023-08-01T13:33:08.504Z,18.57
2023-08-01T13:35:35.660Z,18.40
2023-08-01T13:38:02.448Z,18.31
2023-08-01T13:40:29.557Z,18.19
2023-08-01T13:42:56.281Z,18.11
2023-08-01T13:45:23.082Z,18.05
2023-08-01T13:47:51.331Z,17.99
2023-08-01T13:50:18.122Z,17.92
2023-08-01T13:52:44.878Z,17.89
2023-08-01T13:55:13.160Z,17.91
2023-08-01T13:57:39.860Z,17.87
2023-08-01T14:00:13.047Z,17.83
2023-08-01T14:02:41.461Z,17.82
2023-08-01T14:05:08.926Z,17.77
2023-08-01T14:07:40.553Z,17.84
2023-08-01T14:10:10.816Z,17.95
2023-08-01T14:12:38.423Z,18.11
2023-08-01T14:15:06.073Z,18.18
2023-08-01T14:17:32.958Z,18.26
2023-08-01T14:20:00.337Z,18.33
2023-08-01T14:22:27.312Z,18.34
2023-08-01T14:24:54.305Z,18.34
2023-08-01T14:27:21.641Z,18.31
2023-08-01T14:29:48.812Z,18.27
2023-08-01T14:32:20.242Z,18.27
2023-08-01T14:34:47.464Z,18.26
2023-08-01T14:37:14.160Z,18.29
2023-08-01T14:39:40.881Z,18.31
2023-08-01T14:42:07.701Z,18.34
2023-08-01T14:44:34.519Z,18.35
2023-08-01T14:47:01.320Z,18.40
2023-08-01T14:49:30.726Z,18.38
2023-08-01T14:51:58.004Z,18.43
2023-08-01T14:54:39.057Z,18.49
2023-08-01T14:57:07.447Z,18.52
2023-08-01T14:59:34.202Z,18.49
2023-08-01T15:02:01.252Z,18.43
2023-08-01T15:04:28.452Z,18.33
2023-08-01T15:06:55.728Z,18.26
2023-08-01T15:09:22.852Z,18.22
2023-08-01T15:11:49.699Z,18.16
2023-08-01T15:14:16.502Z,18.10
2023-08-01T15:16:43.619Z,18.05
2023-08-01T15:19:10.667Z,18.01
2023-08-01T15:21:37.414Z,17.95
2023-08-01T15:24:04.340Z,17.88
2023-08-01T15:26:31.347Z,17.84
2023-08-01T15:28:58.055Z,17.77
2023-08-01T15:31:25.986Z,17.72
2023-08-01T15:33:53.039Z,17.66
2023-08-01T15:36:27.646Z,17.64
2023-08-01T15:38:54.838Z,17.62
2023-08-01T15:41:21.581Z,17.58
2023-08-01T15:43:48.421Z,17.56
2023-08-01T15:46:16.477Z,17.51
2023-08-01T15:48:43.356Z,17.47
2023-08-01T15:51:10.612Z,17.44
2023-08-01T15:53:37.394Z,17.39
2023-08-01T15:56:06.905Z,17.27
2023-08-01T15:58:33.795Z,17.17
2023-08-01T16:01:01.506Z,17.10
2023-08-01T16:03:28.986Z,17.08
2023-08-01T16:05:57.288Z,17.07
2023-08-01T16:08:24.204Z,17.06
2023-08-01T16:10:54.005Z,17.08
2023-08-01T16:13:21.306Z,17.12
2023-08-01T16:15:48.337Z,17.16
2023-08-01T16:18:15.158Z,17.20
2023-08-01T16:20:42.416Z,17.22
2023-08-01T16:23:09.156Z,17.26
2023-08-01T16:25:38.215Z,17.29
2023-08-01T16:28:05.213Z,17.30
2023-08-01T16:30:32.102Z,17.31
2023-08-01T16:33:00.047Z,17.32
2023-08-01T16:35:27.174Z,17.31
2023-08-01T16:37:53.908Z,17.29
2023-08-01T16:40:20.791Z,17.29
2023-08-01T16:42:47.668Z,17.29
2023-08-01T16:45:15.824Z,17.29
2023-08-01T16:47:43.801Z,17.25
2023-08-01T16:50:18.517Z,17.18
2023-08-01T16:52:46.054Z,17.14
2023-08-01T16:55:13.336Z,17.15
2023-08-01T16:57:40.913Z,17.15
2023-08-01T17:00:13.930Z,17.12
2023-08-01T17:02:41.687Z,17.06
2023-08-01T17:05:09.126Z,17.06
2023-08-01T17:07:35.945Z,17.03
2023-08-01T17:10:10.798Z,17.03
2023-08-01T17:12:39.167Z,16.99
2023-08-01T17:15:06.663Z,16.97
2023-08-01T17:17:33.593Z,16.95
2023-08-01T17:20:01.734Z,16.93
2023-08-01T17:22:28.491Z,16.86
2023-08-01T17:24:55.463Z,16.76
2023-08-01T17:27:22.314Z,16.71
2023-08-01T17:29:52.419Z,16.70
2023-08-01T17:32:20.252Z,16.67
2023-08-01T17:34:47.132Z,16.67
2023-08-01T17:37:15.412Z,16.61
2023-08-01T17:39:42.153Z,16.55
2023-08-01T17:42:09.004Z,16.46
2023-08-01T17:44:40.562Z,16.40
2023-08-01T17:47:08.286Z,16.38
2023-08-01T17:49:35.257Z,16.32
2023-08-01T17:52:02.006Z,16.29
2023-08-01T17:54:28.813Z,16.26
2023-08-01T17:56:56.696Z,16.24
2023-08-01T17:59:23.809Z,16.19
2023-08-01T18:01:51.055Z,16.12
2023-08-01T18:04:17.936Z,16.12
2023-08-01T18:06:45.049Z,16.13
2023-08-01T18:09:13.502Z,16.14
2023-08-01T18:11:40.384Z,16.13
2023-08-01T18:14:07.448Z,16.15
2023-08-01T18:16:34.348Z,16.14
2023-08-01T18:19:01.112Z,16.14
2023-08-01T18:21:27.839Z,16.11
2023-08-01T18:23:54.827Z,16.05
2023-08-01T18:26:25.459Z,16.03
2023-08-01T18:28:58.758Z,16.02
2023-08-01T18:31:26.494Z,16.03
2023-08-01T18:33:53.619Z,16.04
2023-08-01T18:36:24.981Z,16.05
2023-08-01T18:38:52.668Z,16.06
2023-08-01T18:41:20.819Z,16.07
2023-08-01T18:43:48.450Z,16.08
2023-08-01T18:46:15.783Z,16.09
2023-08-01T18:48:44.689Z,16.10
2023-08-01T18:51:16.317Z,16.11
2023-08-01T18:53:43.609Z,16.11
2023-08-01T18:56:23.670Z,16.09
2023-08-01T18:58:51.318Z,16.09
2023-08-01T19:01:19.662Z,16.05
2023-08-01T19:03:56.108Z,16.03
2023-08-01T19:06:26.752Z,16.01
2023-08-01T19:09:05.572Z,16.03
2023-08-01T19:11:44.741Z,16.04
2023-08-01T19:14:12.367Z,16.07
2023-08-01T19:16:39.356Z,16.10
2023-08-01T19:19:06.569Z,16.13
2023-08-01T19:21:33.387Z,16.15
2023-08-01T19:24:00.410Z,16.15
2023-08-01T19:26:27.104Z,16.15
2023-08-01T19:28:53.922Z,16.14
2023-08-01T19:31:20.789Z,16.14
2023-08-01T19:33:47.630Z,16.13
2023-08-01T19:36:14.620Z,16.11
2023-08-01T19:38:41.871Z,16.10
2023-08-01T19:41:08.696Z,16.08
2023-08-01T19:43:35.397Z,16.03
2023-08-01T19:46:02.366Z,16.02
2023-08-01T19:48:29.309Z,16.01
2023-08-01T19:51:00.324Z,16.01
2023-08-01T19:53:27.181Z,16.00
2023-08-01T19:55:54.260Z,16.01
2023-08-01T19:58:21.373Z,16.01
2023-08-01T20:00:50.467Z,15.97
2023-08-01T20:03:17.782Z,15.91
2023-08-01T20:05:44.568Z,15.90
2023-08-01T20:08:11.279Z,15.87
2023-08-01T20:10:38.061Z,15.85
2023-08-01T20:13:05.798Z,15.86
2023-08-01T20:15:32.565Z,15.86
2023-08-01T20:17:59.333Z,15.87
2023-08-01T20:20:26.238Z,15.86
2023-08-01T20:22:53.032Z,15.84
2023-08-01T20:25:20.107Z,15.83
2023-08-01T20:27:46.869Z,15.81
2023-08-01T20:30:14.248Z,15.77
2023-08-01T20:32:42.358Z,15.73
2023-08-01T20:35:10.335Z,15.71
2023-08-01T20:37:37.120Z,15.71
2023-08-01T20:40:05.771Z,15.68
2023-08-01T20:42:32.652Z,15.66
2023-08-01T20:44:59.491Z,15.63
2023-08-01T20:47:26.275Z,15.62
2023-08-01T20:49:53.243Z,15.61
2023-08-01T20:52:20.430Z,15.61
2023-08-01T20:54:47.173Z,15.60
2023-08-01T20:57:13.928Z,15.63
2023-08-01T20:59:42.367Z,15.64
2023-08-01T21:02:10.581Z,15.65
2023-08-01T21:04:38.701Z,15.65
2023-08-01T21:07:06.545Z,15.64
2023-08-01T21:09:33.395Z,15.62
2023-08-01T21:12:00.174Z,15.60
2023-08-01T21:14:26.982Z,15.63
2023-08-01T21:16:53.907Z,15.64
2023-08-01T21:19:20.655Z,15.64
2023-08-01T21:21:47.620Z,15.65
2023-08-01T21:24:14.347Z,15.68
2023-08-01T21:26:41.296Z,15.70
2023-08-01T21:29:08.686Z,15.71
2023-08-01T21:31:36.681Z,15.72
2023-08-01T21:34:04.626Z,15.71
2023-08-01T21:36:31.390Z,15.73
2023-08-01T21:38:58.209Z,15.74
2023-08-01T21:41:24.942Z,15.78
2023-08-01T21:46:39.201Z,15.74
2023-08-01T21:49:06.094Z,15.74
2023-08-01T21:51:58.445Z,15.73
2023-08-01T21:54:25.853Z,15.71
2023-08-01T21:56:52.548Z,15.72
2023-08-01T21:59:20.567Z,15.73
2023-08-01T22:01:47.871Z,15.74
2023-08-01T22:04:15.124Z,15.72
2023-08-01T22:06:42.161Z,15.71
2023-08-01T22:09:09.072Z,15.69
2023-08-01T22:11:35.967Z,15.68
2023-08-01T22:14:03.683Z,15.68
2023-08-01T22:16:30.785Z,15.68
2023-08-01T22:18:57.576Z,15.66
2023-08-01T22:21:24.295Z,15.65
2023-08-01T22:23:51.244Z,15.63
2023-08-01T22:26:18.966Z,15.64
2023-08-01T22:28:45.675Z,15.62
2023-08-01T22:31:12.464Z,15.63
2023-08-01T22:33:39.226Z,15.64
2023-08-01T22:36:10.987Z,15.63
2023-08-01T22:38:37.775Z,15.62
2023-08-01T22:41:13.940Z,15.62
2023-08-01T22:43:40.734Z,15.60
2023-08-01T22:46:07.499Z,15.57
2023-08-01T22:48:34.276Z,15.53
2023-08-01T22:51:01.020Z,15.52
2023-08-01T22:53:28.588Z,15.50
2023-08-01T22:55:55.378Z,15.47
2023-08-01T22:58:24.253Z,15.44
2023-08-01T23:00:52.150Z,15.38
2023-08-01T23:03:18.950Z,15.34
2023-08-01T23:05:45.773Z,15.32
2023-08-01T23:08:12.535Z,15.31
2023-08-01T23:10:44.772Z,15.29
2023-08-01T23:13:12.108Z,15.28
2023-08-01T23:15:38.812Z,15.27
2023-08-01T23:18:05.641Z,15.23
2023-08-01T23:20:32.410Z,15.22
2023-08-01T23:22:59.248Z,15.19
2023-08-01T23:25:26.426Z,15.20
2023-08-01T23:27:53.162Z,15.19
2023-08-01T23:30:20.223Z,15.15
2023-08-01T23:32:46.999Z,15.14
2023-08-01T23:35:14.312Z,15.13
2023-08-01T23:37:41.025Z,15.10
2023-08-01T23:40:09.010Z,15.09
2023-08-01T23:42:35.705Z,15.06
2023-08-01T23:45:02.440Z,15.04
2023-08-01T23:47:29.610Z,15.02
2023-08-01T23:49:56.430Z,15.01
2023-08-01T23:52:23.252Z,15.03
2023-08-01T23:54:49.966Z,15.05
2023-08-01T23:57:16.719Z,15.06
2023-08-01T23:59:43.466Z,15.08
